createdAt,value
2018-04-09T04:09:35.593Z,98.70
2018-04-09T04:12:04.665Z,98.60
2018-04-09T04:14:33.356Z,98.60
2018-04-09T04:17:13.325Z,98.50
2018-04-09T04:19:53.474Z,98.00
2018-04-09T04:22:22.489Z,98.20
2018-04-09T04:24:51.746Z,97.80
2018-04-09T04:27:21.720Z,97.90
2018-04-09T04:29:51.396Z,97.90
2018-04-09T04:35:40.991Z,97.90
2018-04-09T04:38:58.309Z,97.40
2018-04-09T04:41:27.196Z,97.50
2018-04-09T04:44:35.628Z,98.00
2018-04-09T04:47:05.469Z,97.30
2018-04-09T04:49:34.969Z,97.30
2018-04-09T04:55:36.472Z,97.10
2018-04-09T04:58:07.301Z,97.00
2018-04-09T05:00:37.486Z,97.00
2018-04-09T05:03:07.183Z,96.80
2018-04-09T05:05:37.471Z,97.40
2018-04-09T05:08:08.068Z,96.60
2018-04-09T05:13:41.084Z,96.40
2018-04-09T05:17:00.864Z,96.50
2018-04-09T05:22:32.609Z,95.70
2018-04-09T05:33:57.594Z,95.20
2018-04-09T05:40:19.546Z,92.70
2018-04-09T05:53:31.361Z,91.50
2018-04-09T05:56:00.949Z,91.30
2018-04-09T05:58:30.800Z,89.90
2018-04-09T06:00:59.737Z,89.90
2018-04-09T06:03:29.068Z,82.30
2018-04-09T06:05:59.565Z,81.40
2018-04-09T06:08:30.002Z,81.40
2018-04-09T06:10:59.525Z,74.50
2018-04-09T06:13:43.563Z,58.50
2018-04-09T06:16:13.350Z,60.90
2018-04-09T06:18:43.094Z,61.00
2018-04-09T06:21:12.183Z,69.00
2018-04-09T06:23:41.417Z,67.20
2018-04-09T06:26:10.668Z,71.90
2018-04-09T06:28:39.594Z,67.10
2018-04-09T06:31:09.030Z,63.50
2018-04-09T06:33:38.056Z,63.00
2018-04-09T06:36:07.716Z,59.80
2018-04-09T06:38:36.869Z,53.50
2018-04-09T06:41:06.617Z,53.50
2018-04-09T06:43:36.178Z,41.00
2018-04-09T06:46:25.400Z,41.00
2018-04-09T06:48:54.240Z,41.90
2018-04-09T06:54:40.392Z,38.40
2018-04-09T06:57:17.039Z,38.40
2018-04-09T06:59:53.918Z,37.20
2018-04-09T07:06:08.421Z,35.70
2018-04-09T07:22:19.472Z,33.30
2018-04-09T07:31:27.861Z,29.00
2018-04-09T07:37:01.100Z,36.10
2018-04-09T07:46:29.418Z,37.30
2018-04-09T07:49:02.236Z,41.30
2018-04-09T07:51:31.750Z,41.10
2018-04-09T07:56:57.667Z,48.90
2018-04-09T08:02:09.490Z,37.50
2018-04-09T08:04:41.228Z,40.80
2018-04-09T08:10:42.217Z,40.90
2018-04-09T08:13:13.141Z,38.60
2018-04-09T08:25:16.945Z,38.50
2018-04-09T08:30:48.699Z,35.10
2018-04-09T08:36:15.135Z,33.90
2018-04-09T08:44:08.890Z,32.80
2018-04-09T08:49:27.293Z,28.80
2018-04-09T09:03:49.665Z,26.80
2018-04-09T09:29:49.864Z,22.90
2018-04-09T09:46:22.564Z,24.50
2018-04-09T09:49:09.098Z,23.20
2018-04-09T09:55:19.993Z,24.10
2018-04-09T10:03:37.714Z,24.10
2018-04-09T10:34:45.054Z,25.60
2018-04-09T11:20:49.369Z,28.80
2018-04-09T13:48:49.201Z,29.70
2018-04-09T14:44:03.599Z,29.90
2018-04-09T15:12:56.537Z,32.40
2018-04-09T15:18:51.473Z,31.80
2018-04-09T15:21:30.763Z,29.80
2018-04-09T17:22:48.535Z,39.50
2018-04-09T17:25:18.568Z,39.00
2018-04-09T17:55:00.915Z,50.10
2018-04-09T17:57:30.140Z,50.10
2018-04-09T18:06:35.268Z,52.90
2018-04-09T18:09:03.677Z,53.30
2018-04-09T18:11:32.896Z,53.30
2018-04-09T18:14:01.700Z,53.20
2018-04-09T18:16:38.612Z,53.10
2018-04-09T18:19:08.405Z,53.80
2018-04-09T18:21:52.399Z,53.70
2018-04-09T18:24:22.231Z,54.30
2018-04-09T18:26:51.044Z,54.20
2018-04-09T18:29:20.013Z,54.70
2018-04-09T18:32:11.027Z,54.90
2018-04-09T18:34:49.139Z,54.90
2018-04-09T18:37:17.899Z,55.80
2018-04-09T18:39:50.685Z,56.10
2018-04-09T18:45:44.953Z,56.20
2018-04-09T18:48:42.078Z,57.00
2018-04-09T18:51:37.020Z,56.70
2018-04-09T18:57:34.553Z,57.80
2018-04-09T19:00:03.232Z,58.20
2018-04-09T19:02:47.101Z,58.50
2018-04-09T19:08:01.980Z,59.10
2018-04-09T19:10:30.705Z,60.70
2018-04-09T19:13:07.344Z,59.70
2018-04-09T19:15:36.421Z,59.60
2018-04-09T19:18:04.903Z,59.80
2018-04-09T19:23:34.328Z,61.10
2018-04-09T19:26:03.563Z,61.10
2018-04-09T19:29:03.011Z,61.60
2018-04-09T19:31:31.796Z,64.50
2018-04-09T19:34:00.420Z,65.90
2018-04-09T19:36:35.141Z,65.70
2018-04-09T19:39:08.984Z,66.60
2018-04-09T19:41:54.274Z,67.00
2018-04-09T19:44:23.079Z,65.60
2018-04-09T19:46:51.863Z,66.70
2018-04-09T19:49:21.194Z,69.60
2018-04-09T19:51:50.179Z,68.60
2018-04-09T19:54:19.011Z,68.10
2018-04-09T19:56:56.009Z,66.50
2018-04-09T19:59:24.888Z,67.10
2018-04-09T20:01:54.474Z,68.50
2018-04-09T20:04:23.288Z,69.80
2018-04-09T20:06:52.686Z,71.50
2018-04-09T20:10:08.304Z,70.80
2018-04-09T20:12:38.280Z,71.80
2018-04-09T20:15:31.376Z,72.60
2018-04-09T20:18:00.851Z,73.50
2018-04-09T20:20:29.991Z,74.30
2018-04-09T20:22:59.804Z,77.10
2018-04-09T20:25:28.684Z,77.10
2018-04-09T20:28:04.783Z,79.40
2018-04-09T20:30:34.106Z,78.20
2018-04-09T20:33:03.571Z,79.20
2018-04-09T20:35:33.132Z,76.50
2018-04-09T20:38:01.916Z,76.60
2018-04-09T20:40:30.505Z,74.90
2018-04-09T20:42:59.361Z,73.50
2018-04-09T20:45:29.133Z,75.30
2018-04-09T20:51:27.474Z,75.90
2018-04-09T20:53:56.252Z,76.30
2018-04-09T20:56:26.185Z,79.40
2018-04-09T20:58:54.989Z,79.40
2018-04-09T21:08:26.523Z,80.10
2018-04-09T21:10:55.597Z,80.00
2018-04-09T21:13:25.106Z,76.80
2018-04-09T21:15:54.221Z,78.70
2018-04-09T21:18:31.135Z,78.60
2018-04-09T21:21:13.511Z,81.60
2018-04-09T21:24:29.915Z,81.40
2018-04-09T21:26:58.604Z,77.20
2018-04-09T21:29:29.339Z,78.80
2018-04-09T21:31:58.147Z,78.50
2018-04-09T21:34:27.006Z,79.20
2018-04-09T21:36:55.815Z,79.80
2018-04-09T21:39:33.445Z,81.00
2018-04-09T21:42:02.520Z,84.40
2018-04-09T21:44:31.359Z,84.50
2018-04-09T21:50:29.951Z,86.70
2018-04-09T21:52:59.192Z,85.70
2018-04-09T21:55:28.093Z,86.80
2018-04-09T21:57:57.535Z,87.00
2018-04-09T22:00:25.883Z,88.60
